Time;durP1;ratioP1;P1;durP2;ratioP2;P2;SDS_P1;SDS_P2;PMS_P1;PMS_P2;Temp;Humidity;BMP_temperature;BMP_pressure;BME280_temperature;BME280_humidity;BME280_pressure;Samples;Min_cycle;Max_cycle;Signal;HPM_P1;HPM_P2
2023/04/17 00:01:03;;;;;;;29.38;19.00;;;13.50;68.50;;;;;;5009400;28;20125;-50
2023/04/17 00:03:30;;;;;;;26.48;19.08;;;13.50;68.50;;;;;;5007120;28;20042;-50
2023/04/17 00:05:57;;;;;;;28.83;20.17;;;13.50;68.50;;;;;;5008752;28;20096;-48
2023/04/17 00:08:24;;;;;;;27.60;20.17;;;13.50;68.60;;;;;;5009240;28;20449;-50
2023/04/17 00:10:50;;;;;;;28.92;19.63;;;13.50;68.50;;;;;;5008757;28;20041;-49
2023/04/17 00:13:33;;;;;;;27.15;19.05;;;13.50;68.50;;;;;;5006351;28;20486;-49
2023/04/17 00:15:59;;;;;;;32.42;20.40;;;13.50;68.50;;;;;;5008906;28;20387;-46
2023/04/17 00:18:26;;;;;;;25.15;19.98;;;13.50;68.50;;;;;;5009961;28;20034;-46
2023/04/17 00:20:53;;;;;;;27.88;19.85;;;13.50;68.50;;;;;;5006725;28;20584;-44
2023/04/17 00:23:19;;;;;;;25.65;19.90;;;13.50;68.50;;;;;;5010245;28;20108;-46
2023/04/17 00:25:46;;;;;;;26.73;19.15;;;13.50;68.40;;;;;;5012902;28;20041;-45
2023/04/17 00:28:13;;;;;;;32.78;20.55;;;13.50;68.40;;;;;;5013120;28;20056;-45
2023/04/17 00:30:39;;;;;;;30.10;20.50;;;13.50;68.40;;;;;;5007913;28;20045;-50
2023/04/17 00:33:11;;;;;;;27.13;19.25;;;13.50;69.10;;;;;;5011442;28;20041;-46
2023/04/17 00:35:37;;;;;;;30.88;20.88;;;13.50;68.40;;;;;;4993342;28;20478;-47
2023/04/17 00:38:04;;;;;;;31.27;20.15;;;13.50;68.40;;;;;;5012516;28;20684;-45
2023/04/17 00:40:31;;;;;;;26.50;19.08;;;13.50;68.40;;;;;;5012756;28;20045;-48
2023/04/17 00:42:59;;;;;;;28.95;19.63;;;13.50;68.40;;;;;;5011784;28;20045;-44
2023/04/17 00:45:29;;;;;;;26.80;20.65;;;13.50;68.30;;;;;;5010219;28;20042;-48
2023/04/17 00:47:59;;;;;;;26.70;20.30;;;13.50;68.30;;;;;;5012206;28;20048;-50
2023/04/17 00:50:27;;;;;;;27.17;19.80;;;13.50;68.40;;;;;;5011196;28;20473;-49
2023/04/17 00:52:55;;;;;;;25.73;19.63;;;13.50;68.40;;;;;;4990805;28;20052;-48
2023/04/17 00:55:25;;;;;;;27.08;19.55;;;13.50;68.40;;;;;;5015305;28;20034;-45
2023/04/17 00:57:52;;;;;;;26.27;19.60;;;13.50;68.50;;;;;;5011631;28;20060;-44
2023/04/17 01:00:18;;;;;;;29.25;19.80;;;13.50;68.50;;;;;;5009761;28;20037;-45
2023/04/17 01:02:45;;;;;;;27.38;20.15;;;13.50;68.60;;;;;;4991201;28;20096;-44
2023/04/17 01:05:12;;;;;;;25.42;18.92;;;13.50;68.50;;;;;;5007779;28;20057;-46
2023/04/17 01:07:40;;;;;;;29.60;20.60;;;13.50;68.50;;;;;;4994019;28;20073;-47
2023/04/17 01:10:08;;;;;;;29.02;20.10;;;13.40;68.40;;;;;;4994584;28;20049;-45
2023/04/17 01:12:35;;;;;;;28.35;20.15;;;13.40;68.50;;;;;;5003829;28;20502;-48
2023/04/17 01:15:03;;;;;;;29.15;20.58;;;13.40;68.50;;;;;;5008001;28;20041;-50
2023/04/17 01:17:30;;;;;;;25.73;18.30;;;13.40;68.50;;;;;;5010020;28;20034;-45
2023/04/17 01:19:57;;;;;;;28.80;20.10;;;13.40;68.50;;;;;;4994095;28;20085;-45
2023/04/17 01:22:24;;;;;;;27.40;19.55;;;13.40;68.50;;;;;;5010021;28;20139;-45
2023/04/17 01:24:55;;;;;;;24.15;19.20;;;13.40;68.50;;;;;;4993494;28;20473;-45
2023/04/17 01:27:25;;;;;;;26.40;19.23;;;13.40;68.50;;;;;;4993556;28;20037;-45
2023/04/17 01:29:54;;;;;;;26.55;19.70;;;13.40;68.50;;;;;;4990016;28;20141;-47
2023/04/17 01:32:23;;;;;;;28.02;20.25;;;13.40;68.60;;;;;;5012297;28;20050;-45
2023/04/17 01:34:49;;;;;;;31.00;20.67;;;13.40;68.50;;;;;;5007002;28;20037;-49
2023/04/17 01:37:17;;;;;;;25.88;21.02;;;13.40;68.50;;;;;;5011439;28;20076;-46
2023/04/17 01:39:44;;;;;;;26.63;19.73;;;13.40;68.50;;;;;;4993354;28;20050;-52
2023/04/17 01:42:11;;;;;;;28.08;20.33;;;13.40;68.50;;;;;;5007016;28;20092;-50
2023/04/17 01:44:41;;;;;;;25.98;18.95;;;13.40;68.50;;;;;;5010658;28;20049;-47
2023/04/17 01:47:10;;;;;;;27.70;20.05;;;13.40;68.60;;;;;;4993761;28;20046;-46
2023/04/17 01:49:36;;;;;;;25.92;20.08;;;13.40;68.60;;;;;;5005803;28;20049;-51
2023/04/17 01:52:03;;;;;;;28.15;20.05;;;13.40;68.60;;;;;;5020562;28;20057;-46
2023/04/17 01:54:32;;;;;;;28.88;19.45;;;13.40;68.60;;;;;;4993217;28;20050;-48
2023/04/17 01:56:58;;;;;;;24.35;19.90;;;13.40;68.50;;;;;;5015949;28;20047;-46
2023/04/17 01:59:25;;;;;;;24.52;18.60;;;13.40;68.40;;;;;;5004117;28;20053;-47
2023/04/17 02:01:54;;;;;;;29.60;20.48;;;13.40;68.40;;;;;;5028348;28;20041;-46
2023/04/17 02:04:21;;;;;;;24.30;19.90;;;13.40;68.30;;;;;;5016603;28;20157;-46
2023/04/17 02:06:49;;;;;;;27.08;19.85;;;13.40;68.30;;;;;;5015361;28;20070;-45
2023/04/17 02:09:16;;;;;;;26.08;18.70;;;13.40;68.40;;;;;;4999415;28;20049;-45
2023/04/17 02:11:43;;;;;;;27.77;20.33;;;13.40;68.40;;;;;;4997083;28;20594;-47
2023/04/17 02:14:10;;;;;;;27.17;20.75;;;13.40;68.40;;;;;;4993152;28;20048;-45
2023/04/17 02:16:38;;;;;;;28.95;21.45;;;13.40;68.50;;;;;;5019641;28;20045;-46
2023/04/17 02:19:05;;;;;;;29.40;20.27;;;13.40;68.40;;;;;;5010806;28;20089;-46
2023/04/17 02:21:31;;;;;;;29.13;22.15;;;13.40;68.40;;;;;;4990932;28;20039;-47
2023/04/17 02:24:06;;;;;;;26.90;21.17;;;13.30;68.30;;;;;;4993331;28;20069;-50
2023/04/17 02:26:33;;;;;;;30.77;21.98;;;13.40;68.50;;;;;;5010274;28;20050;-48
2023/04/17 02:28:59;;;;;;;28.42;20.85;;;13.30;68.40;;;;;;5008231;28;20045;-49
2023/04/17 02:31:26;;;;;;;25.83;19.88;;;13.30;68.60;;;;;;4989320;28;20045;-50
2023/04/17 02:33:57;;;;;;;30.77;21.02;;;13.30;68.60;;;;;;4989148;28;20498;-46
2023/04/17 02:36:26;;;;;;;33.20;21.52;;;13.20;68.60;;;;;;4976388;28;20040;-48
2023/04/17 02:38:56;;;;;;;27.75;20.52;;;13.20;68.60;;;;;;4992798;28;20756;-48
2023/04/17 02:41:22;;;;;;;27.67;20.73;;;13.20;68.50;;;;;;5010349;28;20038;-51
2023/04/17 02:43:51;;;;;;;28.02;21.20;;;13.20;68.60;;;;;;4990492;28;20046;-46
2023/04/17 02:46:19;;;;;;;28.98;22.02;;;13.10;68.80;;;;;;5008351;28;20042;-46
2023/04/17 02:48:49;;;;;;;28.73;21.75;;;13.10;68.80;;;;;;5008776;28;20137;-45
2023/04/17 02:51:15;;;;;;;27.25;20.90;;;13.10;69.10;;;;;;5009310;28;20073;-47
2023/04/17 02:53:42;;;;;;;30.33;22.30;;;13.10;69.10;;;;;;4993245;28;20050;-48
2023/04/17 02:56:09;;;;;;;27.38;22.17;;;13.10;69.10;;;;;;4998641;28;20128;-53
2023/04/17 02:58:43;;;;;;;28.33;20.85;;;13.10;69.10;;;;;;4992165;28;20034;-48
2023/04/17 03:01:12;;;;;;;30.30;22.52;;;13.10;69.10;;;;;;5007836;28;20093;-50
2023/04/17 03:03:43;;;;;;;33.30;23.45;;;13.10;69.00;;;;;;4987302;28;20039;-50
2023/04/17 03:06:13;;;;;;;30.65;21.38;;;13.10;69.10;;;;;;4990410;28;20727;-50
2023/04/17 03:08:44;;;;;;;27.38;21.63;;;13.00;69.10;;;;;;4992255;28;20042;-48
2023/04/17 03:11:11;;;;;;;32.58;22.27;;;13.00;69.20;;;;;;5012346;28;20128;-47
2023/04/17 03:13:37;;;;;;;31.27;23.42;;;13.00;69.30;;;;;;5008239;28;20501;-48
2023/04/17 03:16:04;;;;;;;31.77;23.17;;;13.00;69.50;;;;;;5019936;28;20118;-50
2023/04/17 03:18:37;;;;;;;28.88;21.35;;;13.00;69.60;;;;;;4996764;28;20048;-47
2023/04/17 03:21:04;;;;;;;29.60;22.52;;;13.00;69.60;;;;;;5011179;28;20409;-50
2023/04/17 03:23:34;;;;;;;34.03;23.35;;;13.00;69.60;;;;;;5010572;28;20145;-48
2023/04/17 03:26:01;;;;;;;31.38;22.90;;;13.00;69.70;;;;;;4992275;28;20048;-47
2023/04/17 03:28:31;;;;;;;33.83;24.35;;;13.00;69.70;;;;;;5003792;28;20066;-53
2023/04/17 03:30:58;;;;;;;34.80;23.02;;;13.00;69.80;;;;;;5007177;28;20564;-46
2023/04/17 03:33:25;;;;;;;33.42;23.73;;;12.90;69.70;;;;;;5006331;28;20409;-51
2023/04/17 03:35:53;;;;;;;31.88;23.77;;;12.90;69.90;;;;;;4991776;28;20041;-50
2023/04/17 03:38:19;;;;;;;32.33;23.88;;;12.90;69.90;;;;;;4991951;28;20502;-49
2023/04/17 03:40:47;;;;;;;33.00;23.95;;;12.90;70.00;;;;;;4991757;28;20502;-51
2023/04/17 03:43:14;;;;;;;34.08;24.15;;;12.90;70.10;;;;;;5003404;28;20046;-50
2023/04/17 03:45:46;;;;;;;34.90;24.95;;;12.90;70.10;;;;;;4992027;28;20090;-47
2023/04/17 03:48:13;;;;;;;33.85;24.23;;;12.90;70.00;;;;;;5000262;28;20042;-48
2023/04/17 03:50:41;;;;;;;34.90;23.90;;;12.90;70.10;;;;;;4986966;28;20089;-47
2023/04/17 03:53:10;;;;;;;39.45;25.10;;;12.90;70.30;;;;;;4975283;28;20041;-50
2023/04/17 03:55:39;;;;;;;37.42;27.38;;;12.80;70.20;;;;;;4991539;28;20478;-47
2023/04/17 03:58:09;;;;;;;35.85;24.83;;;12.80;70.20;;;;;;4993398;28;20038;-46
2023/04/17 04:00:36;;;;;;;35.22;24.58;;;12.80;70.30;;;;;;5009114;28;20042;-50
2023/04/17 04:03:09;;;;;;;39.22;26.17;;;12.80;70.60;;;;;;5011078;28;20072;-49
2023/04/17 04:05:42;;;;;;;35.55;25.27;;;12.80;70.60;;;;;;5010705;28;20049;-50
2023/04/17 04:08:11;;;;;;;37.97;24.52;;;12.80;70.60;;;;;;5013031;28;20477;-46
2023/04/17 04:10:45;;;;;;;39.88;26.63;;;12.80;70.80;;;;;;4995732;28;20053;-45
2023/04/17 04:13:18;;;;;;;38.22;26.23;;;12.80;70.80;;;;;;4993322;28;20549;-44
2023/04/17 04:15:53;;;;;;;34.92;24.77;;;12.80;71.00;;;;;;4992279;28;20050;-48
2023/04/17 04:18:23;;;;;;;38.72;26.20;;;12.70;71.10;;;;;;4995191;28;20042;-48
2023/04/17 04:20:51;;;;;;;38.50;25.02;;;12.70;71.10;;;;;;4995768;28;20042;-48
2023/04/17 04:23:26;;;;;;;37.35;25.02;;;12.70;71.20;;;;;;4997091;28;20555;-46
2023/04/17 04:25:56;;;;;;;35.03;25.75;;;12.70;71.20;;;;;;5006299;28;20062;-49
2023/04/17 04:28:31;;;;;;;40.03;26.13;;;12.70;71.20;;;;;;5016376;28;20246;-49
2023/04/17 04:31:06;;;;;;;38.58;27.10;;;12.70;71.30;;;;;;5014149;28;20064;-46
2023/04/17 04:33:38;;;;;;;40.42;26.35;;;12.70;71.40;;;;;;5016401;28;20054;-45
2023/04/17 04:36:12;;;;;;;42.92;27.42;;;12.70;71.40;;;;;;5012426;28;20609;-46
2023/04/17 04:38:39;;;;;;;41.03;27.75;;;12.70;71.50;;;;;;5011007;28;20099;-46
2023/04/17 04:41:18;;;;;;;42.35;27.65;;;12.70;71.60;;;;;;4994269;28;20042;-45
2023/04/17 04:43:48;;;;;;;41.58;26.27;;;12.70;71.80;;;;;;5007351;28;20097;-45
2023/04/17 04:46:16;;;;;;;43.45;28.05;;;12.70;71.60;;;;;;5003333;28;20053;-50
2023/04/17 04:48:46;;;;;;;39.75;27.60;;;12.70;71.80;;;;;;4995233;28;20049;-46
2023/04/17 04:51:17;;;;;;;42.28;28.15;;;12.70;71.80;;;;;;4995764;28;20081;-45
2023/04/17 04:53:47;;;;;;;40.40;28.50;;;12.70;71.90;;;;;;5008144;28;20053;-48
2023/04/17 04:56:17;;;;;;;44.17;29.35;;;12.80;72.00;;;;;;5002424;28;20395;-44
2023/04/17 04:58:47;;;;;;;41.47;27.60;;;12.80;71.90;;;;;;5015297;28;20069;-48
2023/04/17 05:01:16;;;;;;;46.00;30.05;;;12.80;71.80;;;;;;5011299;28;20045;-47
2023/04/17 05:03:45;;;;;;;40.72;27.92;;;12.70;71.80;;;;;;4999558;28;20046;-50
2023/04/17 05:06:21;;;;;;;44.00;28.95;;;12.80;71.80;;;;;;4993849;28;20420;-49
2023/04/17 05:08:55;;;;;;;39.95;28.63;;;12.80;71.70;;;;;;5010114;28;20071;-50
2023/04/17 05:11:24;;;;;;;40.20;27.75;;;12.80;71.80;;;;;;5013434;28;20120;-46
2023/04/17 05:13:52;;;;;;;44.88;29.30;;;12.80;71.90;;;;;;5009053;28;20042;-45
2023/04/17 05:16:27;;;;;;;43.63;28.23;;;12.80;71.80;;;;;;4981914;28;20049;-45
2023/04/17 05:18:57;;;;;;;38.50;27.33;;;12.80;71.90;;;;;;4994391;28;20041;-46
2023/04/17 05:21:41;;;;;;;40.95;27.73;;;12.80;71.90;;;;;;4990706;28;20078;-48
2023/04/17 05:24:08;;;;;;;38.58;26.95;;;12.80;72.50;;;;;;5009404;28;20041;-47
2023/04/17 05:26:35;;;;;;;38.83;27.02;;;12.80;71.90;;;;;;4990142;28;20042;-49
2023/04/17 05:29:03;;;;;;;36.47;25.92;;;12.80;71.90;;;;;;4993790;28;20048;-51
2023/04/17 05:31:34;;;;;;;40.67;28.00;;;12.80;71.90;;;;;;5007257;28;20042;-48
2023/04/17 05:34:05;;;;;;;39.80;27.67;;;12.80;71.90;;;;;;4985804;28;20539;-49
2023/04/17 05:36:32;;;;;;;40.28;26.27;;;12.80;72.00;;;;;;4994743;28;20332;-47
2023/04/17 05:39:02;;;;;;;39.05;27.13;;;12.80;72.00;;;;;;5011196;28;20096;-46
2023/04/17 05:41:33;;;;;;;37.45;26.35;;;12.80;71.90;;;;;;5018879;28;20478;-48
2023/04/17 05:44:02;;;;;;;36.65;26.95;;;12.90;72.10;;;;;;5025433;28;20056;-45
2023/04/17 05:46:30;;;;;;;39.08;28.02;;;12.90;72.10;;;;;;5013568;28;20120;-47
2023/04/17 05:48:59;;;;;;;41.40;27.70;;;12.90;72.00;;;;;;5008821;28;20050;-48
2023/04/17 05:51:28;;;;;;;39.03;27.52;;;12.90;71.90;;;;;;4996080;28;20048;-48
2023/04/17 05:53:57;;;;;;;38.47;26.25;;;13.00;71.90;;;;;;5010055;28;20132;-47
2023/04/17 05:56:26;;;;;;;35.97;26.20;;;13.00;71.80;;;;;;5002213;28;20052;-50
2023/04/17 05:58:55;;;;;;;35.90;26.48;;;13.00;71.80;;;;;;4989655;28;20038;-49
2023/04/17 06:01:22;;;;;;;33.28;25.17;;;13.00;71.60;;;;;;5005667;28;20038;-47
2023/04/17 06:03:53;;;;;;;38.63;27.40;;;13.00;71.50;;;;;;4990797;28;20070;-46
2023/04/17 06:06:26;;;;;;;33.10;25.20;;;13.00;72.00;;;;;;4993654;28;20046;-46
2023/04/17 06:08:53;;;;;;;38.33;25.52;;;13.10;71.40;;;;;;5011530;28;20052;-50
2023/04/17 06:11:22;;;;;;;37.47;26.75;;;13.10;71.50;;;;;;5007231;28;20466;-50
2023/04/17 06:13:50;;;;;;;34.95;25.60;;;13.10;71.40;;;;;;4994885;28;20046;-47
2023/04/17 06:16:19;;;;;;;34.95;26.25;;;13.10;71.30;;;;;;5009907;28;20119;-50
2023/04/17 06:18:47;;;;;;;38.05;26.50;;;13.20;71.40;;;;;;5009692;28;20056;-46
2023/04/17 06:21:17;;;;;;;34.92;24.45;;;13.20;71.20;;;;;;4991481;28;20042;-47
2023/04/17 06:23:44;;;;;;;35.47;26.50;;;13.20;71.20;;;;;;4994355;28;20502;-50
2023/04/17 06:26:13;;;;;;;35.05;25.52;;;13.20;71.00;;;;;;4993468;28;20049;-44
2023/04/17 06:28:42;;;;;;;36.47;25.27;;;13.30;70.90;;;;;;4993144;28;20046;-50
2023/04/17 06:31:09;;;;;;;38.30;26.38;;;13.30;70.90;;;;;;5010570;28;20388;-46
2023/04/17 06:33:36;;;;;;;36.22;26.35;;;13.30;70.90;;;;;;5005472;28;20045;-48
2023/04/17 06:36:03;;;;;;;34.67;25.30;;;13.30;70.80;;;;;;5007249;28;20041;-50
2023/04/17 06:38:41;;;;;;;35.78;26.55;;;13.40;70.50;;;;;;5009816;28;20042;-50
2023/04/17 06:41:08;;;;;;;37.35;27.10;;;13.30;70.30;;;;;;4993738;28;20045;-49
2023/04/17 06:43:36;;;;;;;35.97;26.17;;;13.30;70.10;;;;;;4991930;28;20050;-49
2023/04/17 06:46:12;;;;;;;36.20;26.40;;;13.40;70.20;;;;;;5010604;28;20509;-48
2023/04/17 06:48:38;;;;;;;35.30;25.67;;;13.30;70.20;;;;;;5010653;28;20048;-47
2023/04/17 06:51:06;;;;;;;38.72;27.02;;;13.30;70.30;;;;;;4993141;28;20061;-48
2023/04/17 06:53:32;;;;;;;41.70;27.63;;;13.30;70.30;;;;;;5006531;28;20564;-50
2023/04/17 06:56:01;;;;;;;35.05;24.38;;;13.30;70.30;;;;;;5010509;28;20056;-45
2023/04/17 06:58:41;;;;;;;38.00;26.02;;;13.30;70.30;;;;;;5010469;28;20034;-50
2023/04/17 07:01:07;;;;;;;;;;;13.30;70.40;;;;;;5015392;28;20080;-50
2023/04/17 07:03:35;;;;;;;32.50;24.50;;;13.40;70.50;;;;;;5021102;28;19968;-49
2023/04/17 07:06:05;;;;;;;40.03;27.15;;;13.30;70.00;;;;;;5007856;28;20124;-50
2023/04/17 07:08:32;;;;;;;37.95;26.70;;;13.40;70.30;;;;;;5022394;28;20536;-47
2023/04/17 07:11:00;;;;;;;34.35;26.17;;;13.30;70.50;;;;;;5024724;28;20096;-50
2023/04/17 07:13:31;;;;;;;38.55;27.45;;;13.40;70.60;;;;;;5019178;28;20037;-50
2023/04/17 07:16:00;;;;;;;35.92;26.98;;;13.40;70.70;;;;;;5022179;28;20037;-49
2023/04/17 07:18:32;;;;;;;40.40;28.20;;;13.40;70.60;;;;;;5010798;28;20492;-48
2023/04/17 07:21:01;;;;;;;36.10;25.88;;;13.50;70.50;;;;;;5019730;28;20038;-49
2023/04/17 07:23:31;;;;;;;37.50;25.83;;;13.50;70.30;;;;;;5015198;28;20040;-49
2023/04/17 07:26:00;;;;;;;37.45;26.70;;;13.50;70.30;;;;;;5018550;28;20540;-50
2023/04/17 07:28:26;;;;;;;39.72;26.55;;;13.50;70.20;;;;;;5008706;28;20045;-46
2023/04/17 07:30:53;;;;;;;35.53;25.67;;;13.50;70.10;;;;;;5007619;28;20046;-50
2023/04/17 07:33:20;;;;;;;37.35;27.67;;;13.50;70.10;;;;;;5005100;28;20046;-49
2023/04/17 07:35:47;;;;;;;37.28;27.25;;;13.60;70.20;;;;;;5016992;28;20041;-50
2023/04/17 07:38:14;;;;;;;39.05;28.10;;;13.60;69.90;;;;;;4991992;28;20470;-49
2023/04/17 07:40:40;;;;;;;39.42;28.38;;;13.60;69.90;;;;;;5010400;28;20100;-48
2023/04/17 07:43:09;;;;;;;37.72;27.40;;;13.60;69.80;;;;;;5007933;28;20104;-47
2023/04/17 07:45:36;;;;;;;35.50;27.02;;;13.60;69.90;;;;;;5010036;28;20038;-48
2023/04/17 07:48:05;;;;;;;36.53;26.65;;;13.60;69.90;;;;;;5010359;28;20054;-48
2023/04/17 07:50:32;;;;;;;38.28;28.85;;;13.60;70.00;;;;;;5008362;28;20441;-49
2023/04/17 07:52:59;;;;;;;38.03;26.83;;;13.60;70.00;;;;;;5008549;28;20046;-47
2023/04/17 07:55:26;;;;;;;40.83;28.52;;;13.70;70.00;;;;;;5010530;28;20045;-46
2023/04/17 07:57:53;;;;;;;37.50;27.02;;;13.70;70.10;;;;;;5016269;28;20497;-49
2023/04/17 08:00:20;;;;;;;40.53;28.38;;;13.70;70.10;;;;;;5006501;28;20038;-46
2023/04/17 08:02:47;;;;;;;37.83;27.75;;;13.80;69.90;;;;;;4992946;28;20529;-48
2023/04/17 08:05:14;;;;;;;34.90;25.40;;;13.80;69.70;;;;;;5002830;28;20080;-46
2023/04/17 08:07:42;;;;;;;33.70;26.58;;;13.80;69.30;;;;;;5010318;28;20509;-48
2023/04/17 08:10:09;;;;;;;35.85;26.77;;;13.90;69.20;;;;;;5009505;28;20050;-47
2023/04/17 08:12:36;;;;;;;33.78;26.08;;;13.90;69.00;;;;;;5005915;28;20050;-45
2023/04/17 08:15:03;;;;;;;36.67;26.55;;;13.90;69.20;;;;;;5009495;28;20053;-44
2023/04/17 08:17:29;;;;;;;32.75;25.23;;;14.00;69.10;;;;;;5020294;28;20044;-48
2023/04/17 08:19:56;;;;;;;36.40;25.30;;;14.00;69.00;;;;;;5018138;28;20478;-50
2023/04/17 08:22:24;;;;;;;36.28;27.40;;;14.10;69.10;;;;;;5012602;28;20041;-46
2023/04/17 08:24:56;;;;;;;35.10;25.33;;;14.10;69.10;;;;;;5020543;28;20073;-44
2023/04/17 08:27:26;;;;;;;35.13;26.02;;;14.10;69.30;;;;;;5003444;23;20077;31
2023/04/17 08:29:55;;;;;;;32.53;24.90;;;14.20;69.30;;;;;;4989139;28;20894;-48
2023/04/17 08:32:24;;;;;;;32.88;25.13;;;14.30;68.90;;;;;;5009677;28;20049;-51
2023/04/17 08:34:52;;;;;;;35.17;26.30;;;14.30;68.40;;;;;;4999267;28;20073;-47
2023/04/17 08:37:19;;;;;;;35.80;25.95;;;14.40;68.10;;;;;;4998806;28;20486;-47
2023/04/17 08:39:45;;;;;;;32.17;24.75;;;14.40;67.90;;;;;;4998056;28;20109;-47
2023/04/17 08:42:14;;;;;;;32.55;24.60;;;14.40;67.90;;;;;;4990416;28;20062;-45
2023/04/17 08:44:44;;;;;;;36.80;26.65;;;14.50;68.00;;;;;;4991509;28;20046;-48
2023/04/17 08:47:17;;;;;;;32.50;24.60;;;14.50;67.80;;;;;;5001048;28;20690;-46
2023/04/17 08:49:44;;;;;;;;;;;14.50;68.00;;;;;;4992245;28;20729;-45
2023/04/17 08:52:11;;;;;;;32.88;24.80;;;14.60;68.00;;;;;;4990434;28;19922;-48
2023/04/17 08:54:38;;;;;;;32.70;24.95;;;14.70;67.50;;;;;;4996646;28;21244;-44
2023/04/17 08:57:07;;;;;;;33.25;25.17;;;14.70;67.20;;;;;;5003087;28;20461;-51
2023/04/17 08:59:34;;;;;;;32.72;25.15;;;14.70;66.90;;;;;;4989654;28;20041;-45
2023/04/17 09:02:10;;;;;;;32.03;24.42;;;14.80;67.00;;;;;;4993439;28;20042;-44
2023/04/17 09:04:43;;;;;;;36.80;24.95;;;14.80;66.90;;;;;;4986176;28;20153;-50
2023/04/17 09:07:12;;;;;;;31.27;23.90;;;14.90;66.90;;;;;;5000873;28;20043;-45
2023/04/17 09:09:48;;;;;;;29.20;23.63;;;14.90;66.70;;;;;;4999056;28;20049;-49
2023/04/17 09:12:15;;;;;;;32.15;25.13;;;15.00;66.60;;;;;;4998796;28;20070;-46
2023/04/17 09:14:44;;;;;;;30.42;23.08;;;15.00;66.40;;;;;;4993948;28;20060;-48
2023/04/17 09:17:12;;;;;;;31.55;25.23;;;15.00;67.10;;;;;;5000956;28;20042;-51
2023/04/17 09:20:06;;;;;;;33.72;25.38;;;15.10;66.10;;;;;;5000562;28;20050;-46
2023/04/17 09:22:39;;;;;;;32.45;24.48;;;15.20;65.80;;;;;;5000596;28;20036;-49
2023/04/17 09:25:19;;;;;;;33.65;24.30;;;15.20;65.90;;;;;;5003025;28;20406;-49
2023/04/17 09:27:48;;;;;;;35.38;25.92;;;15.30;65.70;;;;;;4993780;28;20532;-48
2023/04/17 09:30:17;;;;;;;30.63;24.73;;;15.40;65.90;;;;;;4986036;28;20065;-46
2023/04/17 09:32:47;;;;;;;32.75;25.90;;;15.40;65.70;;;;;;4994129;28;20525;-51
2023/04/17 09:35:24;;;;;;;35.22;26.08;;;15.40;65.50;;;;;;4991531;28;20046;-46
2023/04/17 09:37:53;;;;;;;33.40;26.55;;;15.50;65.10;;;;;;5006499;28;20046;-49
2023/04/17 09:40:22;;;;;;;32.10;25.95;;;15.50;65.30;;;;;;4991977;28;20053;-47
2023/04/17 09:42:59;;;;;;;29.30;23.63;;;15.50;65.30;;;;;;4987775;28;20676;-45
2023/04/17 09:45:32;;;;;;;32.83;25.92;;;15.60;65.00;;;;;;5001679;28;20042;-48
2023/04/17 09:48:06;;;;;;;31.73;24.52;;;15.70;65.20;;;;;;4995473;28;20088;-45
2023/04/17 09:50:34;;;;;;;33.05;25.98;;;15.80;65.10;;;;;;4993301;28;20680;-46
2023/04/17 09:53:05;;;;;;;33.75;25.90;;;15.80;64.80;;;;;;4992467;28;20383;-46
2023/04/17 09:55:32;;;;;;;30.05;24.80;;;15.90;64.70;;;;;;5002407;28;20715;-46
2023/04/17 09:58:04;;;;;;;32.55;25.38;;;16.00;64.40;;;;;;5001986;28;20124;-47
2023/04/17 10:00:30;;;;;;;35.92;27.88;;;16.10;64.70;;;;;;4995609;28;20042;-49
2023/04/17 10:02:58;;;;;;;35.50;28.10;;;16.20;64.00;;;;;;4990909;28;20133;-53
2023/04/17 10:05:30;;;;;;;36.85;28.33;;;16.30;63.70;;;;;;4984231;28;20523;-45
2023/04/17 10:07:57;;;;;;;;;;;16.30;62.90;;;;;;5000004;28;20046;-46
2023/04/17 10:10:31;;;;;;;34.63;28.55;;;16.40;63.60;;;;;;5000880;28;19925;-45
2023/04/17 10:13:02;;;;;;;35.75;29.65;;;16.50;63.10;;;;;;4995467;28;20057;-45
2023/04/17 10:15:29;;;;;;;35.08;28.88;;;16.60;63.20;;;;;;5000385;28;20054;-47
2023/04/17 10:18:20;;;;;;;34.50;27.50;;;16.70;62.50;;;;;;4991226;28;20061;-47
2023/04/17 10:20:47;;;;;;;33.55;26.52;;;16.80;61.90;;;;;;4979825;28;20042;-46
2023/04/17 10:23:31;;;;;;;33.72;27.75;;;16.90;61.80;;;;;;4991289;28;20038;-51
2023/04/17 10:26:26;;;;;;;32.10;27.55;;;16.90;61.10;;;;;;4997873;28;20038;-50
2023/04/17 10:28:54;;;;;;;32.10;27.83;;;17.00;60.00;;;;;;4994306;28;20054;-45
2023/04/17 10:31:24;;;;;;;34.03;27.73;;;17.00;60.40;;;;;;5000298;28;20046;-45
2023/04/17 10:33:53;;;;;;;34.13;28.67;;;17.00;60.40;;;;;;4995644;28;20043;-49
2023/04/17 10:36:37;;;;;;;33.10;27.67;;;17.10;60.50;;;;;;4997490;28;20076;-48
2023/04/17 10:39:14;;;;;;;29.63;26.13;;;17.20;59.60;;;;;;4999220;28;20790;-46
2023/04/17 10:42:03;;;;;;;29.70;26.25;;;17.20;59.00;;;;;;4985033;28;20125;-47
2023/04/17 10:44:34;;;;;;;32.65;28.63;;;17.40;58.70;;;;;;4995313;28;20046;-46
2023/04/17 10:47:10;;;;;;;32.30;28.27;;;17.40;58.50;;;;;;5003314;28;20057;-46
2023/04/17 10:49:53;;;;;;;30.75;26.08;;;17.50;58.10;;;;;;4980536;28;20081;-47
2023/04/17 10:52:39;;;;;;;31.42;26.02;;;17.60;57.50;;;;;;4993732;28;20125;-46
2023/04/17 10:55:22;;;;;;;32.50;27.83;;;17.60;57.30;;;;;;5004524;28;20501;-46
2023/04/17 10:58:03;;;;;;;33.83;26.75;;;17.70;57.50;;;;;;4990232;28;20426;-47
2023/04/17 11:00:35;;;;;;;32.47;27.73;;;17.70;57.50;;;;;;4994136;28;20438;-47
2023/04/17 11:03:06;;;;;;;28.35;25.10;;;17.80;57.50;;;;;;5004011;28;20445;-45
2023/04/17 11:05:34;;;;;;;26.13;23.17;;;17.90;57.20;;;;;;4987565;28;20038;-45
2023/04/17 11:08:01;;;;;;;23.02;20.55;;;17.90;56.70;;;;;;4989785;28;20042;-47
2023/04/17 11:10:36;;;;;;;23.98;20.33;;;18.00;56.20;;;;;;5000331;28;20120;-48
2023/04/17 11:13:04;;;;;;;24.23;20.58;;;18.10;56.30;;;;;;4991511;28;20042;-49
2023/04/17 11:15:36;;;;;;;23.10;20.70;;;18.20;55.90;;;;;;5004764;28;20056;-50
2023/04/17 11:18:02;;;;;;;22.25;19.40;;;18.20;55.90;;;;;;4996024;28;20202;-48
2023/04/17 11:20:34;;;;;;;22.73;20.42;;;18.40;55.50;;;;;;5007861;28;20497;-45
2023/04/17 11:23:02;;;;;;;23.90;21.15;;;18.50;54.50;;;;;;4992381;28;20030;-49
2023/04/17 11:25:32;;;;;;;22.25;19.23;;;18.60;54.30;;;;;;4996557;28;20042;-50
2023/04/17 11:28:04;;;;;;;23.63;21.23;;;18.70;54.40;;;;;;5001863;28;20073;-47
2023/04/17 11:30:39;;;;;;;23.10;19.57;;;18.80;54.70;;;;;;4999846;28;20073;-50
2023/04/17 11:33:08;;;;;;;22.15;19.90;;;18.90;53.90;;;;;;4982181;28;20072;-49
2023/04/17 11:35:37;;;;;;;21.60;18.77;;;19.00;53.60;;;;;;4989793;28;20042;-48
2023/04/17 11:38:11;;;;;;;23.17;20.20;;;19.10;53.00;;;;;;4995805;28;20528;-49
2023/04/17 11:40:52;;;;;;;21.45;19.25;;;19.10;52.80;;;;;;4990110;28;20042;-49
2023/04/17 11:43:22;;;;;;;18.85;16.83;;;19.10;52.70;;;;;;4982232;28;20038;-53
2023/04/17 11:45:57;;;;;;;20.27;18.17;;;19.10;52.80;;;;;;4983336;28;20050;-45
2023/04/17 11:48:28;;;;;;;19.20;17.17;;;19.20;52.40;;;;;;4990308;28;20038;-47
2023/04/17 11:51:00;;;;;;;20.92;18.27;;;19.20;52.00;;;;;;4986509;28;20064;-48
2023/04/17 11:53:26;;;;;;;22.50;17.88;;;19.30;52.20;;;;;;4997383;28;20046;-50
2023/04/17 11:56:16;;;;;;;18.70;16.70;;;19.30;52.50;;;;;;5000089;28;20042;-50
2023/04/17 11:58:54;;;;;;;19.02;16.88;;;19.30;51.10;;;;;;4990171;28;20118;-50
2023/04/17 12:01:26;;;;;;;17.90;16.10;;;19.30;50.30;;;;;;4987340;28;20426;-51
2023/04/17 12:03:59;;;;;;;19.15;16.65;;;19.30;50.40;;;;;;4994667;28;20039;-47
2023/04/17 12:06:36;;;;;;;17.23;14.60;;;19.30;50.60;;;;;;4987630;28;20093;-48
2023/04/17 12:09:05;;;;;;;17.67;15.13;;;19.20;50.00;;;;;;4996567;28;20133;-48
2023/04/17 12:11:32;;;;;;;15.73;14.13;;;19.30;50.60;;;;;;4994635;28;20031;-49
2023/04/17 12:14:00;;;;;;;14.80;13.38;;;19.30;50.40;;;;;;4997703;28;20045;-48
2023/04/17 12:16:29;;;;;;;13.90;12.57;;;19.30;49.70;;;;;;5007568;28;20117;-49
2023/04/17 12:18:58;;;;;;;15.15;13.65;;;19.30;49.70;;;;;;5005196;28;20101;-46
2023/04/17 12:21:29;;;;;;;14.93;13.43;;;19.30;49.40;;;;;;4992018;28;20089;-47
2023/04/17 12:23:55;;;;;;;16.08;14.48;;;19.40;49.70;;;;;;5001903;28;20039;-48
2023/04/17 12:26:27;;;;;;;15.57;12.68;;;19.40;49.50;;;;;;5009836;28;20034;-46
2023/04/17 12:28:56;;;;;;;15.30;11.93;;;19.50;49.40;;;;;;5009105;28;20092;-48
2023/04/17 12:31:24;;;;;;;12.60;11.30;;;19.50;48.90;;;;;;4996686;28;20523;-49
2023/04/17 12:33:51;;;;;;;11.82;10.68;;;19.60;48.90;;;;;;4990349;28;20038;-49
2023/04/17 12:36:18;;;;;;;14.00;12.60;;;19.70;49.10;;;;;;4994783;28;20034;-47
2023/04/17 12:38:45;;;;;;;13.90;12.50;;;19.80;48.90;;;;;;5000837;28;20100;-46
2023/04/17 12:41:11;;;;;;;15.15;12.82;;;19.90;48.90;;;;;;4993937;28;20042;-47